SFA weather

CLOSED Santa Fé de Antioquía Airport
Santa Fé de Antioquía, Antioquía Department, Colombia

Public forecast

Using degrees Celsius for public forecast. Weather courtesy of forecast.io.

METAR (pilot weather report)

Closest report is Enrique Olaya Herrera Airport, 21.8 nm (40.3 km) SE. Retrieved 2018/12/14 23:00 UTC (1 hour ago):

SKMD 142300Z 15008KT 9999 VCSH SCT033CB BKN080 22/16 A3012 RMK CB VCSH/SW/NW

TAF (pilot weather forecast)

Forecast is more than 12 hours old.

Closest forecast is Jose Maria Córdova International Airport, 31.2 nm (57.8 km) SE. Retrieved 2018/12/03 06:13 UTC (12 days ago):

TAF SKRG 030500Z 0306/0406 VRB02KT 9999 SCT020 BKN090 TEMPO 0308/0313 4000 BR BKN010 BECMG 0315/0317 09010KT FEW020 BECMG 0323/0401 02005KT TX23/0319Z TN12/0311Z